Time;durP1;ratioP1;P1;durP2;ratioP2;P2;SDS_P1;SDS_P2;PMS_P1;PMS_P2;Temp;Humidity;BMP_temperature;BMP_pressure;BME280_temperature;BME280_humidity;BME280_pressure;Samples;Min_cycle;Max_cycle;Signal;HPM_P1;HPM_P2
2021/12/05 00:23:13;;;;;;;2.58;0.68;;;;;;;11.16;56.21;100002.34;4155013;28;20063;-65
2021/12/05 00:25:23;;;;;;;1.98;0.70;;;;;;;11.17;56.08;99998.78;4155285;28;20104;-63
2021/12/05 00:27:53;;;;;;;2.33;0.77;;;;;;;11.17;56.28;99996.16;4155066;28;20050;-64
2021/12/05 00:32:35;;;;;;;3.78;0.80;;;;;;;11.16;56.02;100000.53;4123374;28;20081;-63
2021/12/05 01:10:54;;;;;;;2.35;0.65;;;;;;;11.05;55.96;99979.19;4157861;28;20105;-63
2021/12/05 01:13:55;;;;;;;3.35;0.88;;;;;;;10.91;56.10;99960.59;4158005;28;20123;-64
2021/12/05 01:15:25;;;;;;;1.70;0.57;;;;;;;11.01;55.89;99978.47;4148603;28;20054;-64
2021/12/05 01:17:33;;;;;;;1.42;0.52;;;;;;;10.91;56.01;99958.84;4157731;28;20105;-64
2021/12/05 01:19:36;;;;;;;2.30;0.60;;;;;;;11.00;56.23;99968.03;4157871;28;20096;-64
2021/12/05 01:21:40;;;;;;;2.20;0.57;;;;;;;11.02;55.98;99967.03;4157486;28;20121;-64
2021/12/05 01:23:59;;;;;;;2.83;0.50;;;;;;;10.94;55.97;99944.69;4141487;28;20073;-64
2021/12/05 01:26:10;;;;;;;1.73;0.47;;;;;;;11.01;55.77;99965.31;4151258;28;20105;-64
2021/12/05 01:30:38;;;;;;;2.60;0.63;;;;;;;10.92;55.91;99947.34;4157388;28;20117;-63
2021/12/05 01:32:58;;;;;;;2.72;0.60;;;;;;;10.86;55.99;99931.88;4157439;28;20108;-63
2021/12/05 01:35:21;;;;;;;1.55;0.57;;;;;;;10.92;56.14;99942.09;4156396;28;20295;-64
2021/12/05 01:37:40;;;;;;;;;;;;;;;10.98;56.22;99954.94;4154482;28;20125;-63
2021/12/05 01:44:38;;;;;;;3.00;0.43;;;;;;;10.93;56.20;99943.81;4157031;28;20052;-63
2021/12/05 02:16:27;;;;;;;2.20;0.60;;;;;;;10.77;56.13;99925.31;4156661;28;20120;-62
2021/12/05 02:34:53;;;;;;;2.17;0.47;;;;;;;10.81;55.92;99947.03;4156807;28;20052;-64
2021/12/05 02:39:13;;;;;;;1.33;0.47;;;;;;;10.80;55.93;99953.22;4156419;28;20046;-63
2021/12/05 02:41:19;;;;;;;2.13;0.50;;;;;;;10.68;56.18;99923.97;4156552;28;20044;-63
2021/12/05 02:43:30;;;;;;;3.63;0.60;;;;;;;10.79;55.96;99938.38;4156413;28;20281;-64
2021/12/05 02:45:35;;;;;;;1.35;0.50;;;;;;;10.51;56.20;99882.72;4155690;28;20048;-64
2021/12/05 02:47:38;;;;;;;1.50;0.52;;;;;;;10.73;56.23;99912.38;4155987;28;20050;-64
2021/12/05 02:49:44;;;;;;;2.47;0.40;;;;;;;10.77;56.17;99916.56;4156437;28;20349;-64
2021/12/05 02:51:54;;;;;;;1.83;0.50;;;;;;;10.76;56.21;99910.44;4156310;28;20065;-65
2021/12/05 02:54:06;;;;;;;1.65;0.40;;;;;;;10.76;56.15;99906.97;4155411;28;20097;-64
2021/12/05 02:56:11;;;;;;;1.33;0.50;;;;;;;10.69;56.02;99893.25;4156341;28;20109;-64
2021/12/05 02:59:06;;;;;;;1.33;0.47;;;;;;;10.70;56.10;99892.34;4156062;28;20049;-64
2021/12/05 03:02:54;;;;;;;1.88;0.50;;;;;;;10.71;56.03;99900.13;4156186;28;20046;-64
2021/12/05 03:05:00;;;;;;;2.85;0.40;;;;;;;10.56;55.94;99882.50;4156032;28;20050;-64
2021/12/05 03:07:06;;;;;;;1.85;0.60;;;;;;;10.68;56.03;99902.94;4156043;28;20067;-67
2021/12/05 03:09:14;;;;;;;1.50;0.40;;;;;;;10.63;56.18;99898.81;4155513;28;20042;-63
2021/12/05 03:11:17;;;;;;;2.35;0.50;;;;;;;10.68;56.33;99904.69;4155973;28;20042;-63
2021/12/05 03:13:19;;;;;;;2.05;0.75;;;;;;;10.60;55.92;99883.22;4156145;28;20092;-64
2021/12/05 03:15:22;;;;;;;1.88;0.50;;;;;;;10.62;56.00;99886.59;4155741;28;20068;-63
2021/12/05 03:17:24;;;;;;;;;;;;;;;10.67;56.06;99906.50;4156194;28;20073;-64
2021/12/05 03:19:26;;;;;;;2.75;0.65;;;;;;;10.67;55.86;99900.41;4154735;28;20149;-64
2021/12/05 03:21:29;;;;;;;2.38;0.50;;;;;;;10.59;55.90;99884.13;4155767;28;20164;-64
2021/12/05 03:23:31;;;;;;;1.92;0.40;;;;;;;10.53;55.93;99880.88;4156031;28;20121;-64
2021/12/05 03:25:34;;;;;;;1.35;0.45;;;;;;;10.54;55.75;99884.34;4155559;28;20061;-64
2021/12/05 03:27:39;;;;;;;2.05;0.60;;;;;;;10.62;55.93;99900.63;4155643;28;20281;-64
2021/12/05 03:29:41;;;;;;;2.97;0.45;;;;;;;10.65;56.00;99894.34;4155804;28;20105;-63
2021/12/05 03:31:44;;;;;;;2.15;0.47;;;;;;;10.63;56.14;99894.44;4155656;28;20046;-62
2021/12/05 03:33:47;;;;;;;2.25;0.50;;;;;;;10.64;56.02;99903.16;4155695;28;20324;-63
2021/12/05 03:35:49;;;;;;;2.85;0.70;;;;;;;10.63;55.79;99897.06;4155625;28;20054;-62
2021/12/05 03:37:53;;;;;;;1.65;0.52;;;;;;;10.60;55.96;99894.56;4155782;28;20073;-63
2021/12/05 03:39:55;;;;;;;1.80;0.60;;;;;;;10.57;56.31;99885.97;4155581;28;20046;-63
2021/12/05 03:41:58;;;;;;;2.45;0.45;;;;;;;10.60;56.02;99886.69;4155671;28;20046;-63
2021/12/05 03:44:01;;;;;;;2.45;0.47;;;;;;;10.57;55.93;99889.47;4155711;28;20046;-63
2021/12/05 03:46:05;;;;;;;1.30;0.40;;;;;;;10.51;56.10;99876.59;4155342;28;20212;-63
2021/12/05 03:48:09;;;;;;;2.53;0.50;;;;;;;10.60;56.06;99894.56;4155495;28;20046;-63
2021/12/05 03:50:13;;;;;;;1.27;0.43;;;;;;;10.53;56.15;99880.88;4155268;28;20124;-64
2021/12/05 03:52:16;;;;;;;1.25;0.50;;;;;;;10.59;55.83;99882.34;4155366;28;20100;-64
2021/12/05 03:54:20;;;;;;;1.42;0.40;;;;;;;10.55;55.97;99873.75;4155716;28;20338;-64
2021/12/05 03:56:23;;;;;;;1.60;0.50;;;;;;;10.58;56.06;99878.00;4155077;28;20060;-64
2021/12/05 03:58:28;;;;;;;0.68;0.40;;;;;;;10.58;55.87;99879.81;4155348;28;20107;-64
2021/12/05 04:00:35;;;;;;;2.20;0.38;;;;;;;10.51;56.20;99873.97;4155244;28;20101;-64
2021/12/05 04:02:38;;;;;;;2.70;0.40;;;;;;;10.47;56.13;99861.91;4155327;28;20286;-64
2021/12/05 04:04:42;;;;;;;1.98;0.50;;;;;;;10.56;56.17;99877.25;4155661;28;20215;-64
2021/12/05 04:06:46;;;;;;;3.97;0.80;;;;;;;10.45;56.14;99863.75;4155170;28;20109;-64
2021/12/05 04:08:49;;;;;;;1.67;0.40;;;;;;;10.55;55.90;99876.38;4155322;28;20320;-64
2021/12/05 04:10:56;;;;;;;2.35;0.43;;;;;;;10.55;55.76;99871.13;4155120;28;20046;-64
2021/12/05 04:12:58;;;;;;;1.88;0.47;;;;;;;10.51;56.21;99866.97;4155246;28;20041;-64
2021/12/05 04:15:01;;;;;;;2.85;0.50;;;;;;;10.44;56.22;99854.16;4155310;28;20104;-64
2021/12/05 04:17:04;;;;;;;1.42;0.32;;;;;;;10.33;55.98;99839.75;4155228;28;20061;-63
2021/12/05 04:19:07;;;;;;;1.70;0.40;;;;;;;10.54;55.93;99879.09;4155441;28;20108;-63
2021/12/05 04:21:09;;;;;;;;;;;;;;;10.53;55.95;99872.13;4155585;28;20105;-64
2021/12/05 04:23:11;;;;;;;1.65;0.47;;;;;;;10.51;56.09;99876.59;4158363;28;19984;-63
2021/12/05 04:25:16;;;;;;;1.60;0.43;;;;;;;10.43;55.96;99866.47;4158634;28;20106;-64
2021/12/05 04:27:18;;;;;;;1.08;0.47;;;;;;;10.42;55.91;99869.19;4158291;28;20064;-64
2021/12/05 04:29:20;;;;;;;;;;;;;;;10.48;55.99;99880.25;4159082;28;20050;-64
2021/12/05 04:31:22;;;;;;;1.02;0.30;;;;;;;10.35;56.14;99845.81;4158243;28;19936;-64
2021/12/05 04:33:25;;;;;;;;;;;;;;;10.48;55.96;99866.25;4157171;28;20101;-63
2021/12/05 04:35:27;;;;;;;2.00;0.60;;;;;;;10.39;56.08;99860.50;4158448;28;20140;-64
2021/12/05 04:37:29;;;;;;;;;;;;;;;10.46;55.83;99866.34;4158744;28;20369;-64
2021/12/05 04:39:31;;;;;;;0.75;0.30;;;;;;;10.45;56.03;99859.38;4158085;28;20206;-63
2021/12/05 04:41:34;;;;;;;1.35;0.32;;;;;;;10.41;56.28;99844.66;4157705;28;20328;-63
2021/12/05 04:43:38;;;;;;;1.75;0.40;;;;;;;10.43;56.05;99850.69;4154223;28;20049;-63
2021/12/05 04:45:40;;;;;;;2.10;0.30;;;;;;;10.42;55.84;99854.25;4158288;28;20045;-65
2021/12/05 04:47:44;;;;;;;1.65;0.40;;;;;;;10.42;55.72;99850.78;4158199;28;20400;-65
2021/12/05 04:49:47;;;;;;;3.13;0.50;;;;;;;10.44;55.79;99859.44;4158406;28;20242;-64
2021/12/05 04:51:49;;;;;;;1.58;0.40;;;;;;;10.41;56.06;99847.28;4158248;28;20050;-64
2021/12/05 04:53:52;;;;;;;1.95;0.50;;;;;;;10.35;55.89;99848.44;4158190;28;20318;-64
2021/12/05 04:55:58;;;;;;;2.63;0.47;;;;;;;10.39;56.16;99847.38;4158056;28;20116;-63
2021/12/05 04:58:04;;;;;;;0.95;0.20;;;;;;;10.34;55.97;99840.59;4157757;28;20053;-64
2021/12/05 05:00:12;;;;;;;2.15;0.40;;;;;;;10.42;56.02;99853.41;4158009;28;20105;-63
2021/12/05 05:02:16;;;;;;;1.83;0.40;;;;;;;10.33;55.84;99838.91;4158097;28;20288;-63
2021/12/05 05:06:25;;;;;;;2.90;0.30;;;;;;;10.35;55.88;99837.03;4158155;28;20113;-63
2021/12/05 05:08:29;;;;;;;2.45;0.50;;;;;;;10.36;55.91;99844.91;4157929;28;20390;-63
2021/12/05 05:10:33;;;;;;;2.30;0.50;;;;;;;10.35;55.79;99850.19;4158066;28;20046;-63
2021/12/05 05:12:36;;;;;;;2.60;0.40;;;;;;;10.38;55.99;99850.09;4157805;28;20524;-63
2021/12/05 05:14:38;;;;;;;2.25;0.30;;;;;;;10.37;55.95;99854.47;4154522;28;20405;-63
2021/12/05 05:16:42;;;;;;;2.00;0.40;;;;;;;10.31;55.91;99835.50;4156862;28;20061;-64
2021/12/05 05:18:51;;;;;;;1.60;0.40;;;;;;;10.36;55.73;99850.16;4156779;28;20058;-63
2021/12/05 05:23:30;;;;;;;1.83;0.50;;;;;;;10.30;55.90;99825.91;4156702;28;20101;-64
2021/12/05 05:42:02;;;;;;;2.10;0.50;;;;;;;10.20;56.04;99844.75;4123620;28;20108;-63
2021/12/05 05:50:11;;;;;;;2.47;0.50;;;;;;;10.21;56.07;99841.19;4156154;28;20101;-63
2021/12/05 05:52:14;;;;;;;2.20;0.40;;;;;;;10.30;55.96;99844.31;4156526;28;20139;-63
2021/12/05 05:54:18;;;;;;;2.00;0.47;;;;;;;10.29;55.73;99839.97;4156164;28;20340;-63
2021/12/05 05:56:25;;;;;;;0.73;0.30;;;;;;;10.26;56.03;99845.41;4156322;28;20101;-62
2021/12/05 05:58:39;;;;;;;2.17;0.47;;;;;;;10.29;55.88;99845.22;4156203;28;20049;-63
2021/12/05 06:01:05;;;;;;;1.92;0.40;;;;;;;10.10;55.77;99811.09;4156216;28;20310;-65
2021/12/05 06:03:24;;;;;;;1.25;0.35;;;;;;;10.23;55.66;99831.47;4139969;28;20109;-63
2021/12/05 06:05:28;;;;;;;1.30;0.40;;;;;;;10.24;55.98;99829.69;4150555;28;20045;-63
2021/12/05 06:07:30;;;;;;;1.08;0.32;;;;;;;10.26;55.79;99837.50;4156146;28;20052;-64
2021/12/05 06:09:32;;;;;;;1.38;0.30;;;;;;;10.26;55.98;99832.25;4156127;28;20057;-64
2021/12/05 06:11:35;;;;;;;1.60;0.40;;;;;;;10.23;56.02;99827.97;4156222;28;20294;-64
2021/12/05 06:13:38;;;;;;;1.25;0.20;;;;;;;10.19;55.69;99815.91;4156370;28;20056;-63
2021/12/05 06:15:41;;;;;;;1.50;0.38;;;;;;;10.21;55.67;99820.19;4115647;28;1137273;-63
2021/12/05 06:17:44;;;;;;;3.30;0.65;;;;;;;10.22;56.16;99821.03;4150761;28;20069;-63
2021/12/05 06:19:46;;;;;;;1.25;0.35;;;;;;;10.13;55.82;99811.81;4156851;28;20129;-63
2021/12/05 06:21:49;;;;;;;2.55;0.40;;;;;;;10.23;55.92;99823.59;4156993;28;20050;-63
2021/12/05 06:23:51;;;;;;;0.77;0.30;;;;;;;10.23;55.80;99828.84;4156908;28;20105;-63
2021/12/05 06:25:54;;;;;;;2.33;0.40;;;;;;;10.18;55.92;99827.34;4156613;28;20121;-64
2021/12/05 06:28:02;;;;;;;1.60;0.57;;;;;;;10.19;55.76;99831.69;4156841;28;20088;-63
2021/12/05 06:30:16;;;;;;;1.75;0.30;;;;;;;10.13;56.21;99818.84;4156344;28;20046;-66
2021/12/05 06:45:58;;;;;;;1.35;0.38;;;;;;;10.10;55.83;99811.09;4156556;28;20053;-63
2021/12/05 06:47:49;;;;;;;2.17;0.38;;;;;;;10.19;55.75;99835.16;4153516;28;20061;-64
2021/12/05 06:49:52;;;;;;;1.85;0.38;;;;;;;10.19;55.93;99829.91;4156611;28;20053;-63
2021/12/05 06:52:15;;;;;;;;;;;;;;;10.18;56.10;99838.72;4156807;28;20052;-63
2021/12/05 06:54:17;;;;;;;1.90;0.40;;;;;;;10.15;56.02;99852.00;4156391;28;19984;-63
2021/12/05 06:56:20;;;;;;;2.03;0.30;;;;;;;10.15;55.79;99846.75;4156074;28;20045;-64
2021/12/05 06:58:22;;;;;;;2.25;0.50;;;;;;;10.10;56.12;99848.75;4156211;28;20169;-64
2021/12/05 07:00:27;;;;;;;2.53;0.50;;;;;;;10.17;56.17;99855.41;4156417;28;20050;-64
2021/12/05 07:02:29;;;;;;;1.33;0.35;;;;;;;10.11;56.10;99846.97;4156054;28;20046;-64
2021/12/05 07:06:52;;;;;;;1.50;0.40;;;;;;;10.11;56.13;99844.34;4156171;28;20140;-64
2021/12/05 07:08:59;;;;;;;3.47;0.50;;;;;;;10.15;56.04;99854.63;4155930;28;20058;-63
2021/12/05 07:11:19;;;;;;;2.05;0.40;;;;;;;10.10;55.93;99847.88;4156166;28;20072;-65
2021/12/05 07:15:48;;;;;;;1.88;0.40;;;;;;;10.13;56.05;99845.97;4139550;28;20054;-63
2021/12/05 07:22:26;;;;;;;3.40;0.60;;;;;;;10.11;55.97;99850.47;4155766;28;20269;-64
2021/12/05 07:40:40;;;;;;;2.22;0.60;;;;;;;9.94;55.96;99834.63;4155244;28;20386;-63
2021/12/05 07:42:43;;;;;;;2.90;0.50;;;;;;;10.03;56.26;99850.81;4155381;28;20069;-63
2021/12/05 07:44:45;;;;;;;3.35;0.60;;;;;;;10.00;55.98;99837.84;4170957;28;20131;-63
2021/12/05 07:46:47;;;;;;;;;;;;;;;10.10;56.14;99868.91;4156021;28;20109;-62
2021/12/05 07:48:49;;;;;;;3.13;0.60;;;;;;;10.10;55.87;99861.03;4155468;28;20102;-62
2021/12/05 07:51:10;;;;;;;2.28;0.57;;;;;;;10.10;56.52;99859.25;4155273;28;20049;-63
2021/12/05 07:53:20;;;;;;;1.85;0.52;;;;;;;10.09;56.17;99859.34;4155449;28;20101;-63
2021/12/05 07:55:29;;;;;;;3.08;0.50;;;;;;;10.09;56.05;99862.81;4165301;28;20046;-63
2021/12/05 07:57:41;;;;;;;2.88;0.52;;;;;;;10.00;56.29;99853.59;4155487;28;20183;-63
2021/12/05 08:16:01;;;;;;;2.50;0.70;;;;;;;10.06;56.25;99869.06;4142843;28;20069;-63
2021/12/05 08:18:03;;;;;;;3.92;0.60;;;;;;;10.07;56.09;99869.91;4155441;28;20444;-64
2021/12/05 08:20:09;;;;;;;2.58;0.60;;;;;;;9.88;56.14;99839.25;4155003;28;20336;-63
2021/12/05 08:22:11;;;;;;;2.20;0.50;;;;;;;10.06;56.13;99858.56;4155123;28;20108;-64
2021/12/05 08:24:13;;;;;;;2.53;0.40;;;;;;;10.01;56.34;99850.06;4155036;28;20050;-64
2021/12/05 08:26:21;;;;;;;1.23;0.45;;;;;;;10.06;56.40;99866.44;4155367;28;20091;-64
2021/12/05 08:28:53;;;;;;;1.98;0.55;;;;;;;9.90;56.28;99839.19;4155209;28;20113;-62
2021/12/05 08:30:51;;;;;;;1.85;0.50;;;;;;;10.06;56.29;99865.56;4154804;28;20252;-64
2021/12/05 08:35:20;;;;;;;2.35;0.60;;;;;;;9.99;56.18;99864.16;4154954;28;20097;-64
2021/12/05 08:37:59;;;;;;;2.92;0.80;;;;;;;10.05;56.43;99880.50;4154740;28;20049;-63
2021/12/05 08:44:52;;;;;;;4.00;0.63;;;;;;;10.04;56.30;99884.03;4155084;28;20052;-62
2021/12/05 09:08:46;;;;;;;3.10;0.70;;;;;;;9.99;56.68;99891.28;4156506;28;20084;-63
2021/12/05 09:26:53;;;;;;;3.55;0.77;;;;;;;10.11;56.36;99902.13;4157166;28;20065;-62
2021/12/05 09:50:58;;;;;;;3.22;0.70;;;;;;;10.14;56.00;99910.72;4157431;28;20291;-62
2021/12/05 10:37:19;;;;;;;2.08;0.60;;;;;;;10.18;56.19;99917.56;4140483;28;20109;-62
2021/12/05 10:39:23;;;;;;;4.30;1.20;;;;;;;10.11;56.05;99907.41;4148991;28;20069;-62
2021/12/05 10:43:33;;;;;;;4.00;1.00;;;;;;;10.17;56.25;99910.59;4156473;28;20109;-61
2021/12/05 10:45:39;;;;;;;4.18;1.10;;;;;;;10.16;56.01;99905.44;4156512;28;20105;-61
2021/12/05 10:47:45;;;;;;;3.67;1.10;;;;;;;10.19;55.82;99910.53;4156348;28;20052;-62
2021/12/05 10:49:47;;;;;;;2.95;0.80;;;;;;;10.12;55.90;99898.59;4156298;28;20283;-64
2021/12/05 10:51:57;;;;;;;3.95;1.00;;;;;;;10.11;56.01;99894.25;4156286;28;20056;-61
2021/12/05 10:54:08;;;;;;;3.60;1.10;;;;;;;10.19;56.22;99907.88;4156451;28;20318;-64
2021/12/05 10:56:17;;;;;;;3.53;1.10;;;;;;;10.19;56.17;99902.63;4154019;28;20262;-62
2021/12/05 10:58:19;;;;;;;4.13;0.90;;;;;;;10.18;55.99;99901.81;4156036;28;20126;-62
2021/12/05 11:00:21;;;;;;;4.18;1.00;;;;;;;10.10;55.95;99888.16;4155863;28;20045;-62
2021/12/05 11:02:30;;;;;;;4.03;0.95;;;;;;;10.18;56.01;99899.16;4156083;28;20046;-62
2021/12/05 11:04:35;;;;;;;3.72;1.00;;;;;;;10.17;55.91;99901.84;4155831;28;20392;-62
2021/12/05 11:06:50;;;;;;;4.55;1.00;;;;;;;10.20;56.01;99906.97;4155973;28;20137;-62
2021/12/05 11:09:03;;;;;;;3.28;0.95;;;;;;;10.16;56.00;99895.75;4155916;28;20073;-62
2021/12/05 11:11:16;;;;;;;3.38;0.93;;;;;;;10.19;56.00;99894.75;4155771;28;20056;-62
2021/12/05 11:13:26;;;;;;;4.82;0.95;;;;;;;10.12;56.34;99885.44;4155667;28;20109;-62
2021/12/05 11:15:34;;;;;;;2.88;0.80;;;;;;;10.20;56.29;99896.47;4155604;28;20058;-61
2021/12/05 11:17:39;;;;;;;4.22;0.98;;;;;;;10.17;56.17;99896.59;4155895;28;20121;-62
2021/12/05 11:19:51;;;;;;;4.80;1.23;;;;;;;10.16;56.25;99900.16;4155719;28;20253;-62
2021/12/05 11:22:01;;;;;;;4.60;1.10;;;;;;;10.18;56.09;99906.19;4152391;28;20292;-62
2021/12/05 11:24:12;;;;;;;3.72;1.00;;;;;;;10.18;56.33;99908.81;4155872;28;20398;-63
2021/12/05 11:26:20;;;;;;;5.30;1.10;;;;;;;10.12;56.31;99898.59;4155583;28;20094;-63
2021/12/05 11:28:25;;;;;;;2.90;0.80;;;;;;;10.16;56.05;99908.88;4155759;28;20042;-62
2021/12/05 11:30:32;;;;;;;3.92;1.25;;;;;;;10.10;56.13;99893.41;4155452;28;20046;-62
2021/12/05 11:32:39;;;;;;;3.00;0.93;;;;;;;10.18;56.05;99911.44;4154651;28;20106;-62
2021/12/05 11:34:42;;;;;;;3.58;1.27;;;;;;;10.16;56.28;99906.25;4155703;28;20148;-63
2021/12/05 11:36:44;;;;;;;;;;;;;;;10.17;56.16;99920.25;4155972;28;20350;-62
2021/12/05 11:38:46;;;;;;;2.70;0.80;;;;;;;10.11;56.58;99913.53;4155430;28;20229;-62
2021/12/05 11:40:55;;;;;;;2.45;0.80;;;;;;;10.17;56.40;99925.50;4155643;28;20046;-62
2021/12/05 11:43:04;;;;;;;3.33;0.90;;;;;;;10.16;56.62;99922.03;4155374;28;20108;-62
2021/12/05 11:45:12;;;;;;;2.33;0.73;;;;;;;10.16;56.13;99934.31;4155707;28;20053;-62
2021/12/05 11:47:15;;;;;;;;;;;;;;;10.16;56.01;99934.31;4156213;28;20069;-62
2021/12/05 11:49:25;;;;;;;4.80;1.17;;;;;;;10.14;56.44;99928.28;4155500;28;19924;-62
2021/12/05 11:51:28;;;;;;;2.20;0.63;;;;;;;10.17;56.76;99946.50;4155380;28;20356;-63
2021/12/05 11:53:36;;;;;;;3.60;0.85;;;;;;;10.10;56.86;99937.22;4155723;28;20100;-62
2021/12/05 11:55:38;;;;;;;3.28;0.77;;;;;;;10.15;56.64;99949.22;4155455;28;20048;-62
2021/12/05 11:57:40;;;;;;;3.08;0.90;;;;;;;10.11;56.88;99937.16;4155159;28;20049;-62
2021/12/05 11:59:44;;;;;;;3.90;1.00;;;;;;;10.13;56.89;99945.81;4155350;28;20284;-63
2021/12/05 12:01:51;;;;;;;4.05;0.98;;;;;;;10.16;56.85;99952.72;4155008;28;20105;-63
2021/12/05 12:03:55;;;;;;;3.88;0.93;;;;;;;10.05;56.93;99935.66;4155117;28;20050;-62
2021/12/05 12:05:57;;;;;;;3.85;0.90;;;;;;;10.05;56.95;99926.94;4154762;28;20054;-63
2021/12/05 12:08:07;;;;;;;4.05;0.88;;;;;;;10.16;57.00;99948.31;4155065;28;20385;-62
2021/12/05 12:10:13;;;;;;;4.25;1.00;;;;;;;10.15;56.58;99953.63;4155249;28;20129;-62
2021/12/05 12:12:16;;;;;;;3.08;0.90;;;;;;;10.12;56.82;99948.50;4154743;28;20101;-62
2021/12/05 12:14:18;;;;;;;3.20;0.98;;;;;;;10.14;56.83;99944.88;4155276;28;20041;-63
2021/12/05 12:16:21;;;;;;;3.10;0.82;;;;;;;10.13;56.70;99942.34;4155112;28;20112;-62
2021/12/05 12:18:28;;;;;;;4.25;1.02;;;;;;;10.03;56.61;99934.88;4153861;28;20050;-62
2021/12/05 12:20:33;;;;;;;2.97;1.00;;;;;;;10.11;56.54;99949.44;4154651;28;20050;-62
2021/12/05 12:22:35;;;;;;;5.53;0.90;;;;;;;10.02;56.44;99932.31;4154992;28;20245;-62
2021/12/05 12:24:39;;;;;;;2.90;0.82;;;;;;;10.03;56.57;99945.38;4155241;28;20053;-62
2021/12/05 12:26:43;;;;;;;3.28;0.98;;;;;;;10.14;56.66;99958.03;4155326;28;20238;-62
2021/12/05 12:28:46;;;;;;;2.80;0.98;;;;;;;10.02;56.57;99943.66;4153884;28;20087;-62
2021/12/05 12:31:08;;;;;;;2.80;0.75;;;;;;;10.13;56.67;99958.09;4155022;28;20338;-62
2021/12/05 12:33:20;;;;;;;2.13;0.77;;;;;;;10.14;56.54;99960.66;4154871;28;20137;-61
2021/12/05 12:35:26;;;;;;;3.05;0.93;;;;;;;10.15;56.60;99959.72;4155270;28;20049;-62
2021/12/05 12:37:29;;;;;;;2.72;0.80;;;;;;;10.05;56.53;99945.34;4154914;28;20091;-61
2021/12/05 12:39:38;;;;;;;2.58;0.80;;;;;;;10.09;56.40;99956.56;4154955;28;20055;-62
2021/12/05 12:41:40;;;;;;;3.00;0.90;;;;;;;10.14;56.29;99967.69;4155118;28;20427;-62
2021/12/05 12:43:54;;;;;;;3.00;0.77;;;;;;;10.14;56.55;99967.69;4157274;28;20056;-62
2021/12/05 12:45:56;;;;;;;3.35;0.90;;;;;;;9.85;56.54;99927.84;4158246;28;20101;-62
2021/12/05 12:47:59;;;;;;;3.08;1.10;;;;;;;10.11;56.29;99967.81;4158024;28;20108;-62
2021/12/05 12:50:26;;;;;;;2.33;0.88;;;;;;;10.16;56.63;99969.31;4158330;28;20045;-63
2021/12/05 12:52:28;;;;;;;2.63;0.90;;;;;;;9.88;56.43;99931.19;4158230;28;20049;-62
2021/12/05 12:54:39;;;;;;;3.65;1.20;;;;;;;9.98;56.31;99933.41;4158205;28;20046;-62
2021/12/05 12:57:19;;;;;;;2.50;0.98;;;;;;;10.06;56.17;99952.25;4157779;28;20081;-63
2021/12/05 12:59:30;;;;;;;3.33;0.98;;;;;;;10.14;56.43;99970.31;4123142;28;20177;-63
2021/12/05 13:11:27;;;;;;;3.03;0.93;;;;;;;10.18;56.23;99979.75;4158082;28;20105;-62
2021/12/05 13:13:32;;;;;;;;;;;;;;;10.16;56.04;99979.00;4158560;28;20050;-62
2021/12/05 13:15:59;;;;;;;2.30;0.90;;;;;;;10.17;56.31;99988.56;4156686;28;19982;-62
2021/12/05 13:18:19;;;;;;;2.03;0.70;;;;;;;10.17;56.32;99992.06;4157366;28;20092;-62
2021/12/05 13:20:28;;;;;;;1.85;0.90;;;;;;;10.14;56.20;99986.94;4157484;28;20057;-63
2021/12/05 13:22:30;;;;;;;3.22;1.08;;;;;;;10.15;56.32;99991.25;4157692;28;20241;-62
2021/12/05 13:24:42;;;;;;;2.97;0.90;;;;;;;10.16;56.16;99992.97;4157599;28;20106;-62
2021/12/05 13:26:44;;;;;;;2.65;0.70;;;;;;;10.13;55.99;99984.38;4157771;28;20283;-61
2021/12/05 13:29:10;;;;;;;2.30;0.82;;;;;;;10.20;56.32;99998.94;4157726;28;20123;-61
2021/12/05 13:31:33;;;;;;;2.55;0.80;;;;;;;10.20;56.09;99996.31;4150113;28;20065;-63
2021/12/05 13:33:35;;;;;;;2.53;1.02;;;;;;;10.09;56.05;99983.66;4157791;28;20375;-61
2021/12/05 13:35:38;;;;;;;2.80;0.90;;;;;;;10.10;56.06;99984.50;4157268;28;20094;-61
2021/12/05 13:37:48;;;;;;;2.97;1.15;;;;;;;10.18;56.01;99996.41;4157431;28;20133;-62
2021/12/05 13:40:11;;;;;;;2.67;1.20;;;;;;;10.20;55.99;99998.94;4157447;28;20087;-62
2021/12/05 13:42:28;;;;;;;2.17;0.82;;;;;;;10.20;56.10;99996.31;4157271;28;20105;-62
2021/12/05 13:45:03;;;;;;;2.47;0.93;;;;;;;10.21;56.00;100005.91;4157233;28;20393;-62
2021/12/05 13:47:16;;;;;;;2.35;0.90;;;;;;;10.11;56.28;99987.09;4157249;28;20782;-62
2021/12/05 13:49:38;;;;;;;1.85;0.90;;;;;;;10.16;56.07;99995.59;4157539;28;20049;-62
2021/12/05 13:51:40;;;;;;;1.65;0.82;;;;;;;10.14;56.32;100002.69;4156939;28;20100;-63
2021/12/05 13:53:51;;;;;;;3.40;0.90;;;;;;;10.14;56.09;100007.94;4156927;28;20135;-62
2021/12/05 13:56:02;;;;;;;3.08;1.00;;;;;;;10.20;56.35;100017.34;4156891;28;20101;-62
2021/12/05 14:00:42;;;;;;;2.13;0.88;;;;;;;10.19;56.01;100019.09;4153079;28;20109;-62
2021/12/05 14:02:53;;;;;;;3.08;1.02;;;;;;;10.12;56.06;100009.81;4156574;28;20107;-62
2021/12/05 14:05:28;;;;;;;2.33;1.08;;;;;;;10.19;56.46;100020.88;4157265;28;20156;-62
2021/12/05 14:07:31;;;;;;;2.33;0.80;;;;;;;10.19;56.24;100023.50;4153999;28;20113;-62
2021/12/05 14:09:48;;;;;;;3.13;0.90;;;;;;;10.10;56.19;100010.78;4156893;28;20109;-62
2021/12/05 14:11:58;;;;;;;3.30;1.10;;;;;;;10.20;56.29;100027.84;4156628;28;20069;-64
2021/12/05 14:14:05;;;;;;;2.78;1.02;;;;;;;10.19;56.02;100032.22;4155717;28;20069;-63
2021/12/05 14:16:07;;;;;;;2.60;0.90;;;;;;;10.13;56.13;100016.75;4156685;28;20069;-63
2021/12/05 14:18:18;;;;;;;;;;;;;;;10.18;56.36;100033.19;4146248;28;20079;-62
2021/12/05 14:20:25;;;;;;;2.22;0.90;;;;;;;10.07;56.28;100017.91;4156650;28;19917;-62
2021/12/05 14:22:29;;;;;;;2.50;0.82;;;;;;;10.18;56.14;100033.19;4156600;28;20405;-62
2021/12/05 14:24:35;;;;;;;2.13;0.98;;;;;;;10.11;56.39;100023.00;4156912;28;20069;-62
2021/12/05 14:26:40;;;;;;;3.25;1.02;;;;;;;10.17;56.49;100038.47;4156670;28;20100;-62
2021/12/05 14:28:42;;;;;;;2.38;1.00;;;;;;;10.13;56.21;100036.94;4156613;28;20066;-65
2021/12/05 14:30:45;;;;;;;3.30;0.90;;;;;;;10.15;56.16;100037.72;4156657;28;20105;-62
2021/12/05 14:32:53;;;;;;;2.65;1.10;;;;;;;10.15;56.12;100041.19;4156374;28;20101;-63
2021/12/05 14:35:16;;;;;;;2.92;1.10;;;;;;;10.17;56.14;100044.63;4156517;28;20050;-62
2021/12/05 14:37:22;;;;;;;3.03;1.10;;;;;;;10.17;56.11;100054.25;4156555;28;20331;-62
2021/12/05 14:39:45;;;;;;;2.13;0.90;;;;;;;10.15;56.66;100061.38;4156359;28;20105;-63
2021/12/05 14:41:52;;;;;;;2.50;0.80;;;;;;;10.10;56.45;100045.81;4156527;28;20052;-62
2021/12/05 14:43:56;;;;;;;3.25;0.90;;;;;;;10.09;56.29;100053.75;4156560;28;20046;-63
2021/12/05 14:46:00;;;;;;;3.08;0.95;;;;;;;10.16;56.31;100055.19;4156386;28;20116;-63
2021/12/05 14:48:07;;;;;;;2.38;0.98;;;;;;;10.07;56.27;100048.56;4156364;28;20056;-63
2021/12/05 14:50:25;;;;;;;2.90;1.10;;;;;;;10.16;56.31;100079.69;4156461;28;20229;-62
2021/12/05 14:52:33;;;;;;;2.08;1.00;;;;;;;10.11;56.23;100067.66;4171516;28;20229;-62
2021/12/05 14:54:37;;;;;;;2.22;1.00;;;;;;;10.15;56.60;100083.22;4156323;28;20048;-63
2021/12/05 14:56:40;;;;;;;2.58;1.05;;;;;;;10.15;56.49;100088.50;4156500;28;20070;-62
2021/12/05 14:58:44;;;;;;;2.53;0.93;;;;;;;10.14;56.36;100094.66;4156069;28;20034;-62
2021/12/05 15:00:51;;;;;;;3.05;1.10;;;;;;;10.13;56.66;100092.09;4156140;28;20069;-62
2021/12/05 15:03:14;;;;;;;2.50;1.10;;;;;;;10.15;56.52;100106.03;4156020;28;20052;-62
2021/12/05 15:05:18;;;;;;;3.25;1.15;;;;;;;10.10;56.59;100100.09;4155464;28;20046;-63
2021/12/05 15:07:24;;;;;;;3.10;1.10;;;;;;;10.13;56.59;100102.63;4156103;28;20152;-63
2021/12/05 15:09:41;;;;;;;2.60;0.90;;;;;;;10.12;56.51;100107.03;4152421;28;20052;-62
2021/12/05 15:11:52;;;;;;;2.60;1.30;;;;;;;10.15;56.22;100119.19;4156157;28;20334;-62
2021/12/05 15:14:07;;;;;;;3.60;1.10;;;;;;;10.09;56.37;100108.94;4156113;28;20330;-62
2021/12/05 15:16:09;;;;;;;3.17;1.10;;;;;;;10.06;56.66;100113.41;4155919;28;20069;-62
2021/12/05 15:18:15;;;;;;;;;;;;;;;10.12;56.60;100133.31;4156252;28;20226;-61
2021/12/05 15:20:22;;;;;;;2.92;1.00;;;;;;;10.02;56.73;100113.59;4155794;28;19997;-61
2021/12/05 15:22:25;;;;;;;3.45;1.20;;;;;;;10.09;56.62;100124.69;4156085;28;20382;-62
2021/12/05 15:24:27;;;;;;;2.80;0.80;;;;;;;10.09;56.27;100128.16;4155854;28;20064;-62
2021/12/05 15:26:32;;;;;;;;;;;;;;;10.10;56.50;100137.75;4156325;28;20049;-62
2021/12/05 15:28:36;;;;;;;2.50;0.93;;;;;;;10.09;56.71;100136.06;4155661;28;20244;-63